sensor_id;sensor_type;location;lat;lon;timestamp;P1;durP1;ratioP1;P2;durP2;ratioP2
69172;SDS011;56280;49.662;8.408;2022-07-17T00:00:40;6.47;;;2.38;;
69172;SDS011;56280;49.662;8.408;2022-07-17T00:03:10;4.05;;;2.13;;
69172;SDS011;56280;49.662;8.408;2022-07-17T00:05:39;4.22;;;2.40;;
69172;SDS011;56280;49.662;8.408;2022-07-17T00:08:06;5.13;;;2.33;;
69172;SDS011;56280;49.662;8.408;2022-07-17T00:10:36;5.50;;;2.23;;
69172;SDS011;56280;49.662;8.408;2022-07-17T00:13:03;5.60;;;2.40;;
69172;SDS011;56280;49.662;8.408;2022-07-17T00:15:29;6.13;;;2.25;;
69172;SDS011;56280;49.662;8.408;2022-07-17T00:17:59;4.53;;;2.05;;
69172;SDS011;56280;49.662;8.408;2022-07-17T00:20:25;4.93;;;2.50;;
69172;SDS011;56280;49.662;8.408;2022-07-17T00:22:52;4.03;;;2.10;;
69172;SDS011;56280;49.662;8.408;2022-07-17T00:25:20;4.93;;;2.00;;
69172;SDS011;56280;49.662;8.408;2022-07-17T00:27:49;4.77;;;2.03;;
69172;SDS011;56280;49.662;8.408;2022-07-17T00:30:17;4.95;;;2.28;;
69172;SDS011;56280;49.662;8.408;2022-07-17T00:32:46;3.83;;;2.03;;
69172;SDS011;56280;49.662;8.408;2022-07-17T00:35:12;7.93;;;2.30;;
69172;SDS011;56280;49.662;8.408;2022-07-17T00:37:38;6.57;;;2.67;;
69172;SDS011;56280;49.662;8.408;2022-07-17T00:40:05;5.15;;;2.35;;
69172;SDS011;56280;49.662;8.408;2022-07-17T00:42:31;6.60;;;2.20;;
69172;SDS011;56280;49.662;8.408;2022-07-17T00:44:57;7.03;;;2.50;;
69172;SDS011;56280;49.662;8.408;2022-07-17T00:47:23;6.38;;;2.40;;
69172;SDS011;56280;49.662;8.408;2022-07-17T00:49:52;6.13;;;2.43;;
69172;SDS011;56280;49.662;8.408;2022-07-17T00:52:18;6.35;;;2.35;;
69172;SDS011;56280;49.662;8.408;2022-07-17T00:54:45;5.78;;;2.50;;
69172;SDS011;56280;49.662;8.408;2022-07-17T00:57:12;6.25;;;2.30;;
69172;SDS011;56280;49.662;8.408;2022-07-17T00:59:39;6.27;;;2.50;;
69172;SDS011;56280;49.662;8.408;2022-07-17T01:02:06;5.55;;;2.20;;
69172;SDS011;56280;49.662;8.408;2022-07-17T01:04:33;6.25;;;2.55;;
69172;SDS011;56280;49.662;8.408;2022-07-17T01:07:00;6.38;;;2.20;;
69172;SDS011;56280;49.662;8.408;2022-07-17T01:09:27;7.63;;;2.78;;
69172;SDS011;56280;49.662;8.408;2022-07-17T01:11:54;6.37;;;2.83;;
69172;SDS011;56280;49.662;8.408;2022-07-17T01:14:21;6.25;;;2.40;;
69172;SDS011;56280;49.662;8.408;2022-07-17T01:16:51;5.13;;;2.20;;
69172;SDS011;56280;49.662;8.408;2022-07-17T01:19:17;6.32;;;2.60;;
69172;SDS011;56280;49.662;8.408;2022-07-17T01:21:44;7.53;;;2.75;;
69172;SDS011;56280;49.662;8.408;2022-07-17T01:24:11;4.87;;;2.50;;
69172;SDS011;56280;49.662;8.408;2022-07-17T01:26:42;5.25;;;2.47;;
69172;SDS011;56280;49.662;8.408;2022-07-17T01:29:15;7.13;;;2.28;;
69172;SDS011;56280;49.662;8.408;2022-07-17T01:31:41;5.15;;;2.53;;
69172;SDS011;56280;49.662;8.408;2022-07-17T01:34:08;5.43;;;2.60;;
69172;SDS011;56280;49.662;8.408;2022-07-17T01:36:37;6.72;;;2.38;;
69172;SDS011;56280;49.662;8.408;2022-07-17T01:39:05;7.57;;;2.20;;
69172;SDS011;56280;49.662;8.408;2022-07-17T01:41:31;5.78;;;2.50;;
69172;SDS011;56280;49.662;8.408;2022-07-17T01:43:57;6.85;;;2.47;;
69172;SDS011;56280;49.662;8.408;2022-07-17T01:46:23;5.15;;;2.35;;
69172;SDS011;56280;49.662;8.408;2022-07-17T01:48:50;4.80;;;2.30;;
69172;SDS011;56280;49.662;8.408;2022-07-17T01:51:18;4.35;;;2.38;;
69172;SDS011;56280;49.662;8.408;2022-07-17T01:53:43;5.80;;;2.67;;
69172;SDS011;56280;49.662;8.408;2022-07-17T01:56:09;5.97;;;2.38;;
69172;SDS011;56280;49.662;8.408;2022-07-17T01:58:35;5.20;;;2.43;;
69172;SDS011;56280;49.662;8.408;2022-07-17T02:01:00;6.03;;;2.80;;
69172;SDS011;56280;49.662;8.408;2022-07-17T02:03:27;5.05;;;2.20;;
69172;SDS011;56280;49.662;8.408;2022-07-17T02:05:53;4.90;;;2.03;;
69172;SDS011;56280;49.662;8.408;2022-07-17T02:08:22;5.72;;;2.42;;
69172;SDS011;56280;49.662;8.408;2022-07-17T02:10:50;5.63;;;2.38;;
69172;SDS011;56280;49.662;8.408;2022-07-17T02:13:16;5.80;;;2.40;;
69172;SDS011;56280;49.662;8.408;2022-07-17T02:15:44;8.20;;;2.60;;
69172;SDS011;56280;49.662;8.408;2022-07-17T02:18:12;6.22;;;2.15;;
69172;SDS011;56280;49.662;8.408;2022-07-17T02:20:38;5.90;;;2.50;;
69172;SDS011;56280;49.662;8.408;2022-07-17T02:23:10;7.88;;;2.50;;
69172;SDS011;56280;49.662;8.408;2022-07-17T02:25:40;5.55;;;2.35;;
69172;SDS011;56280;49.662;8.408;2022-07-17T02:28:07;5.28;;;2.20;;
69172;SDS011;56280;49.662;8.408;2022-07-17T02:30:34;6.43;;;2.57;;
69172;SDS011;56280;49.662;8.408;2022-07-17T02:33:03;6.20;;;2.00;;
69172;SDS011;56280;49.662;8.408;2022-07-17T02:35:32;7.63;;;2.40;;
69172;SDS011;56280;49.662;8.408;2022-07-17T02:38:00;6.35;;;2.25;;
69172;SDS011;56280;49.662;8.408;2022-07-17T02:40:31;6.18;;;2.63;;
69172;SDS011;56280;49.662;8.408;2022-07-17T02:42:57;6.57;;;2.30;;
69172;SDS011;56280;49.662;8.408;2022-07-17T02:45:23;4.78;;;1.98;;
69172;SDS011;56280;49.662;8.408;2022-07-17T02:47:51;6.22;;;2.60;;
69172;SDS011;56280;49.662;8.408;2022-07-17T02:50:18;5.22;;;2.00;;
69172;SDS011;56280;49.662;8.408;2022-07-17T02:52:44;7.70;;;2.10;;
69172;SDS011;56280;49.662;8.408;2022-07-17T02:55:14;7.95;;;2.00;;
69172;SDS011;56280;49.662;8.408;2022-07-17T02:57:42;4.90;;;2.00;;
69172;SDS011;56280;49.662;8.408;2022-07-17T03:00:09;4.97;;;2.00;;
69172;SDS011;56280;49.662;8.408;2022-07-17T03:02:36;9.75;;;2.25;;
69172;SDS011;56280;49.662;8.408;2022-07-17T03:05:05;7.50;;;2.33;;
69172;SDS011;56280;49.662;8.408;2022-07-17T03:07:30;6.18;;;2.42;;
69172;SDS011;56280;49.662;8.408;2022-07-17T03:09:57;6.47;;;2.47;;
69172;SDS011;56280;49.662;8.408;2022-07-17T03:12:22;5.83;;;2.57;;
69172;SDS011;56280;49.662;8.408;2022-07-17T03:14:51;7.20;;;2.60;;
69172;SDS011;56280;49.662;8.408;2022-07-17T03:17:16;7.10;;;2.50;;
69172;SDS011;56280;49.662;8.408;2022-07-17T03:19:42;4.63;;;2.30;;
69172;SDS011;56280;49.662;8.408;2022-07-17T03:22:08;6.32;;;2.17;;
69172;SDS011;56280;49.662;8.408;2022-07-17T03:24:37;6.37;;;1.97;;
69172;SDS011;56280;49.662;8.408;2022-07-17T03:27:02;5.97;;;2.03;;
69172;SDS011;56280;49.662;8.408;2022-07-17T03:29:28;5.03;;;2.42;;
69172;SDS011;56280;49.662;8.408;2022-07-17T03:31:54;8.63;;;2.47;;
69172;SDS011;56280;49.662;8.408;2022-07-17T03:34:20;6.95;;;2.28;;
69172;SDS011;56280;49.662;8.408;2022-07-17T03:36:48;5.88;;;2.67;;
69172;SDS011;56280;49.662;8.408;2022-07-17T03:39:16;7.20;;;2.78;;
69172;SDS011;56280;49.662;8.408;2022-07-17T03:41:42;5.78;;;2.20;;
69172;SDS011;56280;49.662;8.408;2022-07-17T03:44:08;4.70;;;2.50;;
69172;SDS011;56280;49.662;8.408;2022-07-17T03:46:39;4.38;;;2.00;;
69172;SDS011;56280;49.662;8.408;2022-07-17T03:49:04;8.50;;;2.50;;
69172;SDS011;56280;49.662;8.408;2022-07-17T03:51:35;9.88;;;2.50;;
69172;SDS011;56280;49.662;8.408;2022-07-17T03:54:01;6.63;;;2.33;;
69172;SDS011;56280;49.662;8.408;2022-07-17T03:56:28;6.50;;;2.20;;
69172;SDS011;56280;49.662;8.408;2022-07-17T03:58:54;6.10;;;2.15;;
69172;SDS011;56280;49.662;8.408;2022-07-17T04:01:20;4.25;;;2.03;;
69172;SDS011;56280;49.662;8.408;2022-07-17T04:03:45;4.13;;;2.30;;
69172;SDS011;56280;49.662;8.408;2022-07-17T04:06:14;6.00;;;2.63;;
69172;SDS011;56280;49.662;8.408;2022-07-17T04:08:39;8.82;;;2.50;;
69172;SDS011;56280;49.662;8.408;2022-07-17T04:11:05;6.13;;;2.33;;
69172;SDS011;56280;49.662;8.408;2022-07-17T04:13:34;6.97;;;2.73;;
69172;SDS011;56280;49.662;8.408;2022-07-17T04:16:00;5.88;;;2.42;;
69172;SDS011;56280;49.662;8.408;2022-07-17T04:18:32;5.40;;;2.03;;
69172;SDS011;56280;49.662;8.408;2022-07-17T04:21:00;5.28;;;2.58;;
69172;SDS011;56280;49.662;8.408;2022-07-17T04:23:29;5.57;;;2.22;;
69172;SDS011;56280;49.662;8.408;2022-07-17T04:25:55;5.83;;;2.10;;
69172;SDS011;56280;49.662;8.408;2022-07-17T04:28:20;5.35;;;2.13;;
69172;SDS011;56280;49.662;8.408;2022-07-17T04:30:46;6.27;;;2.13;;
69172;SDS011;56280;49.662;8.408;2022-07-17T04:33:12;6.07;;;2.28;;
69172;SDS011;56280;49.662;8.408;2022-07-17T04:35:38;4.05;;;1.77;;
69172;SDS011;56280;49.662;8.408;2022-07-17T04:38:06;7.07;;;2.05;;
69172;SDS011;56280;49.662;8.408;2022-07-17T04:40:33;5.93;;;1.90;;
69172;SDS011;56280;49.662;8.408;2022-07-17T04:43:00;5.25;;;2.15;;
69172;SDS011;56280;49.662;8.408;2022-07-17T04:45:27;6.15;;;1.80;;
69172;SDS011;56280;49.662;8.408;2022-07-17T04:47:57;5.25;;;2.50;;
69172;SDS011;56280;49.662;8.408;2022-07-17T04:50:27;6.82;;;2.00;;
69172;SDS011;56280;49.662;8.408;2022-07-17T04:52:54;4.18;;;1.90;;
69172;SDS011;56280;49.662;8.408;2022-07-17T04:55:20;6.35;;;1.90;;
69172;SDS011;56280;49.662;8.408;2022-07-17T04:57:49;6.30;;;1.80;;
69172;SDS011;56280;49.662;8.408;2022-07-17T05:00:18;4.13;;;1.88;;
69172;SDS011;56280;49.662;8.408;2022-07-17T05:02:45;4.40;;;1.83;;
69172;SDS011;56280;49.662;8.408;2022-07-17T05:05:10;6.43;;;1.98;;
69172;SDS011;56280;49.662;8.408;2022-07-17T05:07:38;6.22;;;2.20;;
69172;SDS011;56280;49.662;8.408;2022-07-17T05:10:05;4.07;;;1.88;;
69172;SDS011;56280;49.662;8.408;2022-07-17T05:12:31;3.58;;;1.60;;
69172;SDS011;56280;49.662;8.408;2022-07-17T05:14:59;5.25;;;2.08;;
69172;SDS011;56280;49.662;8.408;2022-07-17T05:17:25;5.78;;;2.13;;
69172;SDS011;56280;49.662;8.408;2022-07-17T05:19:50;8.33;;;1.63;;
69172;SDS011;56280;49.662;8.408;2022-07-17T05:22:15;5.43;;;1.90;;
69172;SDS011;56280;49.662;8.408;2022-07-17T05:24:41;5.67;;;1.93;;
69172;SDS011;56280;49.662;8.408;2022-07-17T05:27:06;4.90;;;1.93;;
69172;SDS011;56280;49.662;8.408;2022-07-17T05:29:31;5.00;;;1.73;;
69172;SDS011;56280;49.662;8.408;2022-07-17T05:31:57;4.43;;;1.70;;
69172;SDS011;56280;49.662;8.408;2022-07-17T05:34:22;4.70;;;2.22;;
69172;SDS011;56280;49.662;8.408;2022-07-17T05:36:47;4.23;;;1.63;;
69172;SDS011;56280;49.662;8.408;2022-07-17T05:39:14;5.57;;;2.00;;
69172;SDS011;56280;49.662;8.408;2022-07-17T05:41:39;5.63;;;2.07;;
69172;SDS011;56280;49.662;8.408;2022-07-17T05:44:04;4.67;;;1.87;;
69172;SDS011;56280;49.662;8.408;2022-07-17T05:46:30;4.40;;;1.70;;
69172;SDS011;56280;49.662;8.408;2022-07-17T05:48:55;6.33;;;2.10;;
69172;SDS011;56280;49.662;8.408;2022-07-17T05:51:21;5.55;;;2.28;;
69172;SDS011;56280;49.662;8.408;2022-07-17T05:53:46;4.55;;;1.92;;
69172;SDS011;56280;49.662;8.408;2022-07-17T05:56:11;5.60;;;2.10;;
69172;SDS011;56280;49.662;8.408;2022-07-17T05:58:37;5.83;;;2.10;;
69172;SDS011;56280;49.662;8.408;2022-07-17T06:01:02;6.13;;;2.43;;
69172;SDS011;56280;49.662;8.408;2022-07-17T06:03:27;4.57;;;2.00;;
69172;SDS011;56280;49.662;8.408;2022-07-17T06:05:54;5.22;;;2.00;;
69172;SDS011;56280;49.662;8.408;2022-07-17T06:08:19;4.70;;;2.00;;
69172;SDS011;56280;49.662;8.408;2022-07-17T06:10:44;7.00;;;2.10;;
69172;SDS011;56280;49.662;8.408;2022-07-17T06:13:10;7.07;;;2.33;;
69172;SDS011;56280;49.662;8.408;2022-07-17T06:15:35;6.00;;;1.87;;
69172;SDS011;56280;49.662;8.408;2022-07-17T06:18:03;7.63;;;2.00;;
69172;SDS011;56280;49.662;8.408;2022-07-17T06:20:29;5.43;;;1.80;;
69172;SDS011;56280;49.662;8.408;2022-07-17T06:22:55;4.65;;;1.92;;
69172;SDS011;56280;49.662;8.408;2022-07-17T06:25:20;6.30;;;2.20;;
69172;SDS011;56280;49.662;8.408;2022-07-17T06:27:45;5.93;;;1.93;;
69172;SDS011;56280;49.662;8.408;2022-07-17T06:30:12;4.80;;;2.03;;
69172;SDS011;56280;49.662;8.408;2022-07-17T06:32:39;4.25;;;1.88;;
69172;SDS011;56280;49.662;8.408;2022-07-17T06:35:04;5.70;;;1.80;;
69172;SDS011;56280;49.662;8.408;2022-07-17T06:37:31;8.90;;;2.10;;
69172;SDS011;56280;49.662;8.408;2022-07-17T06:39:56;5.93;;;1.70;;
69172;SDS011;56280;49.662;8.408;2022-07-17T06:42:22;5.10;;;1.60;;
69172;SDS011;56280;49.662;8.408;2022-07-17T06:44:47;6.97;;;1.80;;
69172;SDS011;56280;49.662;8.408;2022-07-17T06:47:12;4.33;;;1.40;;
69172;SDS011;56280;49.662;8.408;2022-07-17T06:49:38;7.80;;;2.00;;
69172;SDS011;56280;49.662;8.408;2022-07-17T06:52:03;6.97;;;1.80;;
69172;SDS011;56280;49.662;8.408;2022-07-17T06:54:29;7.50;;;2.23;;
69172;SDS011;56280;49.662;8.408;2022-07-17T06:56:54;6.40;;;1.90;;
69172;SDS011;56280;49.662;8.408;2022-07-17T06:59:19;5.47;;;2.00;;
69172;SDS011;56280;49.662;8.408;2022-07-17T07:01:45;7.97;;;1.97;;
69172;SDS011;56280;49.662;8.408;2022-07-17T07:04:10;4.30;;;1.87;;
69172;SDS011;56280;49.662;8.408;2022-07-17T07:06:36;5.30;;;1.60;;
69172;SDS011;56280;49.662;8.408;2022-07-17T07:09:02;5.57;;;2.20;;
69172;SDS011;56280;49.662;8.408;2022-07-17T07:11:27;6.90;;;1.80;;
69172;SDS011;56280;49.662;8.408;2022-07-17T07:13:53;5.03;;;1.80;;
69172;SDS011;56280;49.662;8.408;2022-07-17T07:16:18;5.23;;;1.80;;
69172;SDS011;56280;49.662;8.408;2022-07-17T07:18:45;5.30;;;1.90;;
69172;SDS011;56280;49.662;8.408;2022-07-17T07:21:10;5.53;;;1.80;;
69172;SDS011;56280;49.662;8.408;2022-07-17T07:23:36;5.73;;;1.70;;
69172;SDS011;56280;49.662;8.408;2022-07-17T07:26:01;5.30;;;1.80;;
69172;SDS011;56280;49.662;8.408;2022-07-17T07:28:26;8.07;;;2.20;;
69172;SDS011;56280;49.662;8.408;2022-07-17T07:30:52;7.47;;;2.05;;
69172;SDS011;56280;49.662;8.408;2022-07-17T07:33:17;5.33;;;1.70;;
69172;SDS011;56280;49.662;8.408;2022-07-17T07:35:42;4.77;;;2.00;;
69172;SDS011;56280;49.662;8.408;2022-07-17T07:38:08;7.53;;;3.50;;
69172;SDS011;56280;49.662;8.408;2022-07-17T07:40:34;6.50;;;3.42;;
69172;SDS011;56280;49.662;8.408;2022-07-17T07:42:59;4.83;;;2.33;;
69172;SDS011;56280;49.662;8.408;2022-07-17T07:45:25;6.20;;;2.20;;
69172;SDS011;56280;49.662;8.408;2022-07-17T07:47:50;6.63;;;2.10;;
69172;SDS011;56280;49.662;8.408;2022-07-17T07:50:16;5.40;;;2.30;;
69172;SDS011;56280;49.662;8.408;2022-07-17T07:52:43;6.38;;;1.80;;
69172;SDS011;56280;49.662;8.408;2022-07-17T07:55:09;4.43;;;1.83;;
69172;SDS011;56280;49.662;8.408;2022-07-17T07:57:44;5.00;;;1.57;;
69172;SDS011;56280;49.662;8.408;2022-07-17T08:00:10;5.10;;;1.50;;
69172;SDS011;56280;49.662;8.408;2022-07-17T08:02:36;4.15;;;1.58;;
69172;SDS011;56280;49.662;8.408;2022-07-17T08:05:02;3.75;;;1.60;;
69172;SDS011;56280;49.662;8.408;2022-07-17T08:07:29;4.72;;;1.58;;
69172;SDS011;56280;49.662;8.408;2022-07-17T08:09:54;3.67;;;1.80;;
69172;SDS011;56280;49.662;8.408;2022-07-17T08:12:20;5.50;;;2.10;;
69172;SDS011;56280;49.662;8.408;2022-07-17T08:14:46;4.97;;;1.67;;
69172;SDS011;56280;49.662;8.408;2022-07-17T08:17:11;5.77;;;1.60;;
69172;SDS011;56280;49.662;8.408;2022-07-17T08:19:36;4.13;;;1.70;;
69172;SDS011;56280;49.662;8.408;2022-07-17T08:22:02;4.70;;;1.80;;
69172;SDS011;56280;49.662;8.408;2022-07-17T08:24:27;4.95;;;1.95;;
69172;SDS011;56280;49.662;8.408;2022-07-17T08:26:52;4.47;;;1.63;;
69172;SDS011;56280;49.662;8.408;2022-07-17T08:29:18;6.13;;;1.93;;
69172;SDS011;56280;49.662;8.408;2022-07-17T08:31:43;4.07;;;1.80;;
69172;SDS011;56280;49.662;8.408;2022-07-17T08:34:08;5.73;;;2.10;;
69172;SDS011;56280;49.662;8.408;2022-07-17T08:36:34;4.43;;;1.52;;
69172;SDS011;56280;49.662;8.408;2022-07-17T08:39:00;4.50;;;1.40;;
69172;SDS011;56280;49.662;8.408;2022-07-17T08:41:26;5.00;;;1.60;;
69172;SDS011;56280;49.662;8.408;2022-07-17T08:43:52;5.00;;;2.00;;
69172;SDS011;56280;49.662;8.408;2022-07-17T08:46:19;5.57;;;1.40;;
69172;SDS011;56280;49.662;8.408;2022-07-17T08:48:49;4.03;;;1.63;;
69172;SDS011;56280;49.662;8.408;2022-07-17T08:51:20;10.33;;;2.20;;
69172;SDS011;56280;49.662;8.408;2022-07-17T08:53:45;5.30;;;1.30;;
69172;SDS011;56280;49.662;8.408;2022-07-17T08:56:11;3.72;;;1.50;;
69172;SDS011;56280;49.662;8.408;2022-07-17T08:58:36;5.97;;;1.60;;
69172;SDS011;56280;49.662;8.408;2022-07-17T09:01:02;3.90;;;1.80;;
69172;SDS011;56280;49.662;8.408;2022-07-17T09:03:27;6.72;;;1.60;;
69172;SDS011;56280;49.662;8.408;2022-07-17T09:05:53;5.37;;;1.40;;
69172;SDS011;56280;49.662;8.408;2022-07-17T09:08:19;5.03;;;1.30;;
69172;SDS011;56280;49.662;8.408;2022-07-17T09:10:47;4.55;;;1.27;;
69172;SDS011;56280;49.662;8.408;2022-07-17T09:13:14;4.28;;;1.40;;
69172;SDS011;56280;49.662;8.408;2022-07-17T09:15:45;4.13;;;1.52;;
69172;SDS011;56280;49.662;8.408;2022-07-17T09:18:12;4.28;;;1.42;;
69172;SDS011;56280;49.662;8.408;2022-07-17T09:20:44;4.90;;;1.42;;
69172;SDS011;56280;49.662;8.408;2022-07-17T09:23:11;4.82;;;1.77;;
69172;SDS011;56280;49.662;8.408;2022-07-17T09:25:38;4.72;;;1.33;;
69172;SDS011;56280;49.662;8.408;2022-07-17T09:28:07;3.67;;;1.40;;
69172;SDS011;56280;49.662;8.408;2022-07-17T09:30:34;3.95;;;1.40;;
69172;SDS011;56280;49.662;8.408;2022-07-17T09:33:06;5.05;;;1.40;;
69172;SDS011;56280;49.662;8.408;2022-07-17T09:35:33;4.55;;;1.50;;
69172;SDS011;56280;49.662;8.408;2022-07-17T09:37:58;3.80;;;1.57;;
69172;SDS011;56280;49.662;8.408;2022-07-17T09:40:24;5.17;;;1.60;;
69172;SDS011;56280;49.662;8.408;2022-07-17T09:43:08;4.03;;;1.60;;
69172;SDS011;56280;49.662;8.408;2022-07-17T09:45:34;5.03;;;1.52;;
69172;SDS011;56280;49.662;8.408;2022-07-17T09:48:00;3.42;;;1.35;;
69172;SDS011;56280;49.662;8.408;2022-07-17T09:50:27;4.60;;;1.40;;
69172;SDS011;56280;49.662;8.408;2022-07-17T09:52:53;4.72;;;1.30;;
69172;SDS011;56280;49.662;8.408;2022-07-17T09:55:22;4.05;;;1.35;;
69172;SDS011;56280;49.662;8.408;2022-07-17T09:57:53;5.38;;;1.50;;
69172;SDS011;56280;49.662;8.408;2022-07-17T10:00:21;3.63;;;1.40;;
69172;SDS011;56280;49.662;8.408;2022-07-17T10:02:47;6.50;;;1.70;;
69172;SDS011;56280;49.662;8.408;2022-07-17T10:05:15;3.53;;;1.35;;
69172;SDS011;56280;49.662;8.408;2022-07-17T10:07:45;3.97;;;1.45;;
69172;SDS011;56280;49.662;8.408;2022-07-17T10:10:11;4.20;;;1.40;;
69172;SDS011;56280;49.662;8.408;2022-07-17T10:12:39;3.67;;;1.50;;
69172;SDS011;56280;49.662;8.408;2022-07-17T10:15:06;4.50;;;1.40;;
69172;SDS011;56280;49.662;8.408;2022-07-17T10:17:33;4.20;;;1.65;;
69172;SDS011;56280;49.662;8.408;2022-07-17T10:19:58;3.15;;;1.30;;
69172;SDS011;56280;49.662;8.408;2022-07-17T10:22:24;3.10;;;1.70;;
69172;SDS011;56280;49.662;8.408;2022-07-17T10:24:54;7.82;;;1.55;;
69172;SDS011;56280;49.662;8.408;2022-07-17T10:27:22;4.18;;;1.40;;
69172;SDS011;56280;49.662;8.408;2022-07-17T10:29:58;5.38;;;1.50;;
69172;SDS011;56280;49.662;8.408;2022-07-17T10:32:24;4.30;;;1.40;;
69172;SDS011;56280;49.662;8.408;2022-07-17T10:35:00;5.28;;;1.55;;
69172;SDS011;56280;49.662;8.408;2022-07-17T10:42:40;4.20;;;1.50;;
69172;SDS011;56280;49.662;8.408;2022-07-17T10:47:55;3.88;;;1.40;;
69172;SDS011;56280;49.662;8.408;2022-07-17T10:50:22;4.35;;;1.77;;
69172;SDS011;56280;49.662;8.408;2022-07-17T10:53:00;3.42;;;1.40;;
69172;SDS011;56280;49.662;8.408;2022-07-17T10:55:30;3.70;;;1.58;;
69172;SDS011;56280;49.662;8.408;2022-07-17T10:57:56;3.70;;;1.55;;
69172;SDS011;56280;49.662;8.408;2022-07-17T11:00:22;5.85;;;1.65;;
69172;SDS011;56280;49.662;8.408;2022-07-17T11:02:48;5.37;;;1.53;;
69172;SDS011;56280;49.662;8.408;2022-07-17T11:05:14;3.57;;;1.83;;
69172;SDS011;56280;49.662;8.408;2022-07-17T11:07:49;3.47;;;1.40;;
69172;SDS011;56280;49.662;8.408;2022-07-17T11:10:15;4.85;;;1.73;;
69172;SDS011;56280;49.662;8.408;2022-07-17T11:12:41;4.25;;;1.77;;
69172;SDS011;56280;49.662;8.408;2022-07-17T11:15:06;4.60;;;1.70;;
69172;SDS011;56280;49.662;8.408;2022-07-17T11:17:32;6.33;;;1.90;;
69172;SDS011;56280;49.662;8.408;2022-07-17T11:19:58;4.33;;;1.30;;
69172;SDS011;56280;49.662;8.408;2022-07-17T11:22:24;5.97;;;1.58;;
69172;SDS011;56280;49.662;8.408;2022-07-17T11:24:50;3.80;;;1.48;;
69172;SDS011;56280;49.662;8.408;2022-07-17T11:27:22;4.72;;;1.50;;
69172;SDS011;56280;49.662;8.408;2022-07-17T11:29:50;5.78;;;1.80;;
69172;SDS011;56280;49.662;8.408;2022-07-17T11:32:16;7.22;;;1.88;;
69172;SDS011;56280;49.662;8.408;2022-07-17T11:34:42;4.25;;;1.50;;
69172;SDS011;56280;49.662;8.408;2022-07-17T11:37:08;4.20;;;2.08;;
69172;SDS011;56280;49.662;8.408;2022-07-17T11:42:12;4.30;;;1.53;;
69172;SDS011;56280;49.662;8.408;2022-07-17T11:44:39;3.67;;;1.45;;
69172;SDS011;56280;49.662;8.408;2022-07-17T11:47:04;3.88;;;1.55;;
69172;SDS011;56280;49.662;8.408;2022-07-17T11:49:34;4.80;;;1.70;;
69172;SDS011;56280;49.662;8.408;2022-07-17T11:52:10;4.13;;;1.52;;
69172;SDS011;56280;49.662;8.408;2022-07-17T11:57:10;3.28;;;1.40;;
69172;SDS011;56280;49.662;8.408;2022-07-17T11:59:36;3.13;;;1.40;;
69172;SDS011;56280;49.662;8.408;2022-07-17T12:02:06;3.47;;;1.50;;
69172;SDS011;56280;49.662;8.408;2022-07-17T12:04:59;7.25;;;1.88;;
69172;SDS011;56280;49.662;8.408;2022-07-17T12:07:26;6.75;;;1.50;;
69172;SDS011;56280;49.662;8.408;2022-07-17T12:10:16;5.97;;;1.75;;
69172;SDS011;56280;49.662;8.408;2022-07-17T12:20:53;5.30;;;1.55;;
69172;SDS011;56280;49.662;8.408;2022-07-17T12:28:35;4.28;;;1.70;;
69172;SDS011;56280;49.662;8.408;2022-07-17T12:31:02;3.70;;;1.67;;
69172;SDS011;56280;49.662;8.408;2022-07-17T12:33:28;4.07;;;1.70;;
69172;SDS011;56280;49.662;8.408;2022-07-17T12:35:54;3.43;;;1.43;;
69172;SDS011;56280;49.662;8.408;2022-07-17T12:38:19;5.32;;;1.50;;
69172;SDS011;56280;49.662;8.408;2022-07-17T12:40:45;6.63;;;1.50;;
69172;SDS011;56280;49.662;8.408;2022-07-17T12:43:11;7.68;;;1.60;;
69172;SDS011;56280;49.662;8.408;2022-07-17T12:45:36;4.93;;;1.50;;
69172;SDS011;56280;49.662;8.408;2022-07-17T12:48:02;4.82;;;1.55;;
69172;SDS011;56280;49.662;8.408;2022-07-17T12:50:27;4.75;;;1.50;;
69172;SDS011;56280;49.662;8.408;2022-07-17T12:52:52;3.30;;;1.53;;
69172;SDS011;56280;49.662;8.408;2022-07-17T12:55:18;5.17;;;1.33;;
69172;SDS011;56280;49.662;8.408;2022-07-17T12:57:43;4.53;;;1.33;;
69172;SDS011;56280;49.662;8.408;2022-07-17T13:00:09;3.70;;;1.37;;
69172;SDS011;56280;49.662;8.408;2022-07-17T13:02:35;4.25;;;1.35;;
69172;SDS011;56280;49.662;8.408;2022-07-17T13:05:00;6.60;;;1.83;;
69172;SDS011;56280;49.662;8.408;2022-07-17T13:07:26;4.45;;;1.27;;
69172;SDS011;56280;49.662;8.408;2022-07-17T13:09:51;5.53;;;1.37;;
69172;SDS011;56280;49.662;8.408;2022-07-17T13:12:16;4.80;;;1.50;;
69172;SDS011;56280;49.662;8.408;2022-07-17T13:14:42;4.60;;;1.20;;
69172;SDS011;56280;49.662;8.408;2022-07-17T13:17:07;4.50;;;1.83;;
69172;SDS011;56280;49.662;8.408;2022-07-17T13:19:33;3.67;;;1.40;;
69172;SDS011;56280;49.662;8.408;2022-07-17T13:21:58;3.57;;;1.40;;
69172;SDS011;56280;49.662;8.408;2022-07-17T13:24:25;4.32;;;1.45;;
69172;SDS011;56280;49.662;8.408;2022-07-17T13:26:51;3.33;;;1.47;;
69172;SDS011;56280;49.662;8.408;2022-07-17T13:29:16;3.77;;;1.30;;
69172;SDS011;56280;49.662;8.408;2022-07-17T13:31:41;4.67;;;1.50;;
69172;SDS011;56280;49.662;8.408;2022-07-17T13:34:07;3.35;;;1.30;;
69172;SDS011;56280;49.662;8.408;2022-07-17T13:36:33;4.07;;;1.30;;
69172;SDS011;56280;49.662;8.408;2022-07-17T13:38:58;4.30;;;1.40;;
69172;SDS011;56280;49.662;8.408;2022-07-17T13:41:23;4.07;;;1.70;;
69172;SDS011;56280;49.662;8.408;2022-07-17T13:43:48;3.50;;;1.42;;
69172;SDS011;56280;49.662;8.408;2022-07-17T13:46:14;3.88;;;1.15;;
69172;SDS011;56280;49.662;8.408;2022-07-17T13:48:39;3.33;;;1.30;;
69172;SDS011;56280;49.662;8.408;2022-07-17T13:51:05;5.73;;;1.60;;
69172;SDS011;56280;49.662;8.408;2022-07-17T13:53:31;3.47;;;1.35;;
69172;SDS011;56280;49.662;8.408;2022-07-17T13:55:57;4.18;;;1.67;;
69172;SDS011;56280;49.662;8.408;2022-07-17T13:58:22;3.42;;;1.10;;
69172;SDS011;56280;49.662;8.408;2022-07-17T14:00:47;4.47;;;1.40;;
69172;SDS011;56280;49.662;8.408;2022-07-17T14:03:13;4.20;;;1.40;;
69172;SDS011;56280;49.662;8.408;2022-07-17T14:05:38;2.87;;;1.37;;
69172;SDS011;56280;49.662;8.408;2022-07-17T14:08:04;4.37;;;1.50;;
69172;SDS011;56280;49.662;8.408;2022-07-17T14:10:29;4.43;;;1.50;;
69172;SDS011;56280;49.662;8.408;2022-07-17T14:12:54;3.03;;;1.10;;
69172;SDS011;56280;49.662;8.408;2022-07-17T14:15:19;3.43;;;1.30;;
69172;SDS011;56280;49.662;8.408;2022-07-17T14:17:45;3.17;;;1.20;;
69172;SDS011;56280;49.662;8.408;2022-07-17T14:20:10;4.77;;;1.40;;
69172;SDS011;56280;49.662;8.408;2022-07-17T14:22:36;4.53;;;1.30;;
69172;SDS011;56280;49.662;8.408;2022-07-17T14:25:02;3.17;;;1.27;;
69172;SDS011;56280;49.662;8.408;2022-07-17T14:27:27;3.23;;;1.43;;
69172;SDS011;56280;49.662;8.408;2022-07-17T14:29:52;3.53;;;1.30;;
69172;SDS011;56280;49.662;8.408;2022-07-17T14:32:18;5.70;;;1.53;;
69172;SDS011;56280;49.662;8.408;2022-07-17T14:34:43;4.07;;;1.47;;
69172;SDS011;56280;49.662;8.408;2022-07-17T14:37:08;4.03;;;1.30;;
69172;SDS011;56280;49.662;8.408;2022-07-17T14:39:34;3.13;;;1.30;;
69172;SDS011;56280;49.662;8.408;2022-07-17T14:42:00;3.17;;;1.13;;
69172;SDS011;56280;49.662;8.408;2022-07-17T14:44:26;3.65;;;1.38;;
69172;SDS011;56280;49.662;8.408;2022-07-17T14:46:52;5.32;;;1.67;;
69172;SDS011;56280;49.662;8.408;2022-07-17T14:49:18;3.80;;;1.20;;
69172;SDS011;56280;49.662;8.408;2022-07-17T14:51:43;5.07;;;1.30;;
69172;SDS011;56280;49.662;8.408;2022-07-17T14:54:09;4.30;;;1.20;;
69172;SDS011;56280;49.662;8.408;2022-07-17T14:56:34;7.20;;;1.40;;
69172;SDS011;56280;49.662;8.408;2022-07-17T14:59:00;4.30;;;1.30;;
69172;SDS011;56280;49.662;8.408;2022-07-17T15:01:25;3.60;;;1.47;;
69172;SDS011;56280;49.662;8.408;2022-07-17T15:03:50;3.20;;;1.20;;
69172;SDS011;56280;49.662;8.408;2022-07-17T15:06:16;3.90;;;1.30;;
69172;SDS011;56280;49.662;8.408;2022-07-17T15:08:41;6.03;;;1.40;;
69172;SDS011;56280;49.662;8.408;2022-07-17T15:11:06;3.90;;;1.30;;